• Join FlightAware (Why Join?)
  • Login
  • US Flag 
01:03PM EDT


 

Airport Tracker/Info


-or-


 

Live Flight TrackerFlight Track Log ✈ DAL268 ✈ 24-Jun-2013 ✈ KSFO - KJFK

Flight Track Log - Related Links

Times and Time Zones

All times are in EDT time to prevent confusion due to time zone crossing. See the DAL268 flight status page for this flight to view local times or setup timezone preferences in your user account.

Time Position Orientation Groundspeed Altitude Reporting Facility
EDT Latitude Longitude Course Direction KTS MPH feet Rate Location/Type
02:49PM 37.6080 -122.3800 28° Northeast 60 69  Level FlightAware
02:49PM 37.6256 -122.3680 28° Northeast 178 205 200 1,080 Climbing FlightAware ADS-B
02:50PM 37.6339 -122.3630 26° Northeast 165 190 800 2,700 Climbing FlightAware ADS-B
02:50PM 37.6404 -122.3570 36° Northeast 175 201 1,200 2,100 Climbing FlightAware ADS-B
02:50PM 37.6429 -122.3540 44° Northeast 179 206 1,300 1,020 Climbing FlightAware ADS-B
02:50PM 37.6507 -122.3450 42° Northeast 197 227 1,500 1,380 Climbing FlightAware ADS-B
02:50PM 37.6626 -122.3300 45° Northeast 210 242 2,000 1,500 Climbing FlightAware ADS-B
02:51PM 37.6746 -122.3160 43° Northeast 239 275 2,300 1,500 Climbing FlightAware ADS-B
02:51PM 37.6856 -122.3030 43° Northeast 257 296 2,700 1,560 Climbing FlightAware ADS-B
02:51PM 37.6911 -122.2970 41° Northeast 266 306 2,800 1,980 Climbing FlightAware ADS-B
02:51PM 37.7058 -122.2820 39° Northeast 277 319 3,400 2,880 Climbing FlightAware ADS-B
02:51PM 37.7196 -122.2680 39° Northeast 279 321 4,200 3,420 Climbing FlightAware ADS-B
02:52PM 37.7414 -122.2470 37° Northeast 279 321 5,400 3,000 Climbing FlightAware ADS-B
02:52PM 37.7757 -122.2130 38° Northeast 285 328 6,900 2,700 Climbing FlightAware ADS-B
02:53PM 37.7922 -122.1970 37° Northeast 299 344 7,600 2,700 Climbing FlightAware ADS-B
02:53PM 37.8091 -122.1810 37° Northeast 301 346 8,300 3,000 Climbing FlightAware ADS-B
02:53PM 37.8267 -122.1630 39° Northeast 299 344 9,200 3,000 Climbing FlightAware ADS-B
02:53PM 37.8442 -122.1460 37° Northeast 305 351 9,900 2,460 Climbing FlightAware ADS-B
02:54PM 37.8792 -122.1120 37° Northeast 318 366 11,100 2,400 Climbing FlightAware ADS-B
02:54PM 37.9149 -122.0760 38° Northeast 332 382 12,300 2,040 Climbing FlightAware ADS-B
02:55PM 37.9536 -122.0380 38° Northeast 351 404 13,200 1,440 Climbing FlightAware ADS-B
02:55PM 37.9954 -121.9970 38° Northeast 381 438 13,800 1,320 Climbing FlightAware ADS-B
02:56PM 38.0540 -121.9390 38° Northeast 410 472 14,800 1,860 Climbing FlightAware ADS-B
02:57PM 38.1520 -121.8310 41° Northeast 431 496 17,200 2,160 Climbing FlightAware
02:58PM 38.1860 -121.7410 64° Northeast 441 507 18,600 2,220 Climbing FlightAware
02:59PM 38.2310 -121.6350 62° Northeast 438 504 20,400 2,160 Climbing FlightAware
02:59PM 38.2830 -121.5540 51° Northeast 442 509 21,800 1,920 Climbing FlightAware
03:00PM 38.3380 -121.4690 50° Northeast 446 513 23,100 1,500 Climbing FlightAware
03:01PM 38.3930 -121.3830 51° Northeast 463 533 23,900 1,260 Climbing FlightAware
03:01PM 38.4450 -121.3030 50° Northeast 471 542 24,800 1,380 Climbing FlightAware
03:02PM 38.5090 -121.2020 51° Northeast 480 552 25,900 1,380 Climbing FlightAware
03:03PM 38.5640 -121.1160 51° Northeast 486 559 26,800 1,320 Climbing FlightAware
03:03PM 38.6310 -121.0120 50° Northeast 496 571 27,800 1,200 Climbing FlightAware
03:04PM 38.6900 -120.9190 51° Northeast 503 579 28,600 1,080 Climbing FlightAware
03:05PM 38.7510 -120.8240 51° Northeast 511 588 29,300 1,020 Climbing FlightAware
03:06PM 38.8170 -120.7190 51° Northeast 517 595 30,100 1,020 Climbing FlightAware
03:06PM 38.8770 -120.6240 51° Northeast 524 603 30,800 1,020 Climbing FlightAware
03:07PM 38.9400 -120.5230 51° Northeast 529 609 31,500 1,380 Climbing FlightAware
03:08PM 39.0030 -120.4240 51° Northeast 522 601 32,700 1,620 Climbing FlightAware
03:08PM 39.0710 -120.3140 51° Northeast 515 593 33,800 1,320 Climbing FlightAware
03:09PM 39.1370 -120.2090 51° Northeast 513 590 34,700 780 Climbing FlightAware
03:10PM 39.1990 -120.1090 51° Northeast 512 589 35,000 180 Climbing FlightAware
03:11PM 39.2600 -120.0100 51° Northeast 509 586 35,000  Level FlightAware
03:11PM 39.3250 -119.9040 52° Northeast 510 587 35,000  Level FlightAware
03:12PM 39.3890 -119.8010 51° Northeast 509 586 35,000  Level FlightAware
03:13PM 39.4470 -119.7060 52° Northeast 509 586 35,000  Level FlightAware
03:13PM 39.5110 -119.6010 52° Northeast 510 587 35,000 240 Level FlightAware
03:14PM 39.5740 -119.4980 52° Northeast 509 586 35,400 840 Climbing FlightAware
03:15PM 39.6310 -119.4030 52° Northeast 505 581 36,200 1,020 Climbing FlightAware
03:15PM 39.6870 -119.3120 51° Northeast 503 579 36,800 540 Climbing FlightAware
03:16PM 39.7550 -119.1980 52° Northeast 505 581 37,000 120 Climbing FlightAware
03:17PM 39.8150 -119.0990 52° Northeast 505 581 37,000  Level FlightAware
03:18PM 39.8760 -118.9970 52° Northeast 510 587 37,000  Level FlightAware
03:18PM 39.9330 -118.9020 52° Northeast 513 590 37,000  Level FlightAware
03:19PM 39.9910 -118.8030 53° Northeast 516 594 37,000  Level FlightAware
03:20PM 40.0590 -118.6890 52° Northeast 516 594 37,000  Level FlightAware
03:20PM 40.1130 -118.5920 54° Northeast 518 596 37,000  Level FlightAware
03:21PM 40.1580 -118.4630 65° Northeast 513 590 37,000  Level FlightAware
03:22PM 40.1890 -118.3480 71° East 509 586 37,000  Level FlightAware
03:23PM 40.2300 -118.1960 70° East 509 586 37,000  Level FlightAware
03:23PM 40.2660 -118.0610 71° East 511 588 37,000  Level FlightAware
03:24PM 40.2930 -117.9660 70° East 511 588 37,000  Level FlightAware
03:25PM 40.3250 -117.8490 70° East 511 588 37,000  Level FlightAware
03:25PM 40.3500 -117.7600 70° East 511 588 37,000  Level FlightAware
03:26PM 40.3830 -117.6390 70° East 511 588 37,000  Level FlightAware
03:27PM 40.4070 -117.5540 70° East 511 588 37,000  Level FlightAware
03:28PM 40.4380 -117.4400 70° East 511 588 37,000  Level FlightAware
03:28PM 40.4640 -117.3490 69° East 511 588 37,000  Level FlightAware
03:29PM 40.4990 -117.2220 70° East 511 588 37,000  Level FlightAware
03:30PM 40.5220 -117.1370 70° East 511 588 37,000  Level FlightAware
03:30PM 40.5560 -117.0160 70° East 511 588 37,000  Level FlightAware
03:31PM 40.5830 -116.9190 70° East 511 588 37,000  Level FlightAware
03:32PM 40.6140 -116.8040 70° East 511 588 37,000  Level FlightAware
03:32PM 40.6400 -116.7100 70° East 511 588 37,000  Level FlightAware
03:33PM 40.6660 -116.6150 70° East 511 588 37,000  Level FlightAware
03:36PM 40.9694 -115.8870 61° Northeast 516 594 37,000  Level FlightAware ADS-B
03:37PM 41.0196 -115.7560 63° Northeast 517 595 37,000  Level FlightAware ADS-B
03:37PM 41.0519 -115.6700 64° Northeast 519 597 37,000  Level FlightAware ADS-B
03:40PM 41.1963 -115.2840 63° Northeast 522 601 37,000  Level FlightAware ADS-B
03:40PM 41.2350 -115.1800 64° Northeast 521 600 37,000  Level FlightAware ADS-B
03:41PM 41.2684 -115.0900 64° Northeast 521 600 37,000  Level FlightAware ADS-B
03:41PM 41.3011 -115.0010 64° Northeast 521 600 37,000  Level FlightAware ADS-B
03:42PM 41.3351 -114.9090 64° Northeast 521 600 37,000  Level FlightAware ADS-B
03:43PM 41.4330 -114.6410 64° Northeast 520 598 37,000  Level FlightAware ADS-B
03:44PM 41.4716 -114.5350 64° Northeast 517 595 37,000  Level FlightAware ADS-B
03:44PM 41.5027 -114.4490 64° Northeast 517 595 37,000  Level FlightAware ADS-B
03:45PM 41.5339 -114.3630 64° Northeast 517 595 37,000  Level FlightAware ADS-B
03:45PM 41.5684 -114.2670 64° Northeast 515 593 37,000  Level FlightAware ADS-B
03:46PM 41.6001 -114.1780 65° Northeast 514 592 37,000  Level FlightAware ADS-B
03:46PM 41.6311 -114.0920 64° Northeast 513 590 37,000  Level FlightAware ADS-B
03:47PM 41.6618 -114.0050 65° Northeast 510 587 37,000  Level FlightAware ADS-B
03:48PM 41.6974 -113.9050 64° Northeast 509 586 37,000  Level FlightAware ADS-B
03:48PM 41.7332 -113.8040 65° Northeast 508 585 37,000  Level FlightAware ADS-B
03:49PM 41.7635 -113.7180 65° Northeast 507 583 37,000  Level FlightAware ADS-B
03:49PM 41.7954 -113.6280 65° Northeast 507 583 37,000  Level FlightAware ADS-B
03:50PM 41.8351 -113.5140 65° Northeast 508 585 37,000  Level FlightAware ADS-B
03:50PM 41.8419 -113.4908 68° East 507 583 37,000  Level Salt Lake Center
03:52PM 41.9486 -113.1880 65° Northeast 507 583 37,000  Level FlightAware ADS-B
03:52PM 41.9799 -113.0970 65° Northeast 510 587 37,000  Level FlightAware ADS-B
03:53PM 42.0113 -113.0060 65° Northeast 509 586 37,000  Level FlightAware ADS-B
03:53PM 42.0434 -112.9120 65° Northeast 509 586 37,000  Level FlightAware ADS-B
03:56PM 42.1506 -112.5587 68° East  Level FlightAware Approximate
03:57PM 42.2264 -112.3710 68° East 504 580 37,000  Level FlightAware ADS-B
03:57PM 42.2609 -112.2660 66° East 503 579 37,000  Level FlightAware ADS-B
03:58PM 42.2921 -112.1690 66° East 503 579 37,000  Level FlightAware ADS-B
03:58PM 42.3328 -112.0430 66° East 502 578 37,000  Level FlightAware ADS-B
03:59PM 42.3610 -111.9560 66° East 502 578 37,000  Level FlightAware ADS-B
03:59PM 42.3888 -111.8700 66° East 501 577 37,000  Level FlightAware ADS-B
04:00PM 42.4170 -111.7830 66° East 502 578 37,000  Level FlightAware ADS-B
04:01PM 42.4727 -111.6080 67° East 500 575 37,000  Level FlightAware ADS-B
04:02PM 42.5056 -111.5050 67° East 503 579 37,000  Level FlightAware ADS-B
04:03PM 42.5533 -111.3550 67° East 500 575 37,000  Level Salt Lake Center
04:04PM 42.6081 -111.1800 67° East 503 579 37,000  Level Salt Lake Center
04:05PM 42.6631 -111.0056 67° East 503 579 37,000  Level Salt Lake Center
04:06PM 42.7272 -110.7975 67° East 508 585 37,000  Level Salt Lake Center
04:07PM 42.7806 -110.6264 67° East 513 590 37,000  Level Salt Lake Center
04:08PM 42.8408 -110.4294 67° East 508 585 37,000  Level Salt Lake Center
04:09PM 42.8925 -110.2586 68° East 510 587 37,000  Level Salt Lake Center
04:10PM 42.9442 -110.0867 68° East 512 589 37,000  Level Salt Lake Center
04:11PM 43.0042 -109.8861 68° East 514 592 37,000  Level Salt Lake Center
04:12PM 43.0558 -109.7153 67° East 515 593 37,000  Level Salt Lake Center
04:13PM 43.1158 -109.5117 68° East 515 593 37,000  Level Salt Lake Center
04:14PM 43.1678 -109.3367 68° East 516 594 37,000  Level Salt Lake Center
04:15PM 43.2253 -109.1375 68° East 511 588 37,000  Level Salt Lake Center
04:16PM 43.2750 -108.9675 68° East 506 582 37,000  Level Salt Lake Center
04:17PM 43.3311 -108.7692 69° East 500 575 37,000  Level Salt Lake Center
04:18PM 43.3797 -108.6017 68° East 495 570 37,000  Level Salt Lake Center
04:19PM 43.4269 -108.4356 69° East 490 564 37,000  Level Salt Lake Center
04:20PM 43.4814 -108.2428 69° East 486 559 37,000  Level Salt Lake Center
04:21PM 43.5306 -108.0792 67° East 484 557 37,000  Level Salt Lake Center
04:22PM 43.5869 -107.8881 68° East 482 555 37,000  Level Salt Lake Center
04:23PM 43.6344 -107.7253 68° East 480 552 37,000  Level Salt Lake Center
04:24PM 43.6903 -107.5350 68° East 479 551 37,000  Level Salt Lake Center
04:25PM 43.7358 -107.3767 68° East 483 556 37,000  Level Salt Lake Center
04:26PM 43.7922 -107.1814 68° East 489 563 37,000  Level Salt Lake Center
04:27PM 43.8403 -107.0122 68° East 494 568 37,000  Level Salt Lake Center
04:28PM 43.8958 -106.8142 69° East 495 570 37,000  Level Salt Lake Center
04:29PM 43.9433 -106.6447 69° East 494 568 37,000  Level Salt Lake Center
04:30PM 43.9747 -106.5292 69° East 497 572 37,000  Level Denver Center
04:31PM 44.0175 -106.3592 71° East 490 564 37,000  Level Denver Center
04:32PM 44.0550 -106.1833 73° East 493 567 37,000  Level Denver Center
04:33PM 44.0989 -105.9781 73° East 495 570 37,000  Level Denver Center
04:34PM 44.1353 -105.8036 74° East 494 568 37,000  Level Denver Center
04:35PM 44.1775 -105.6017 74° East 491 565 37,000  Level Denver Center
04:36PM 44.2131 -105.4267 74° East 490 564 37,000  Level Denver Center
04:37PM 44.2492 -105.2528 74° East 489 563 37,000  Level Denver Center
04:38PM 44.2903 -105.0492 74° East 489 563 37,000  Level Denver Center
04:39PM 44.3247 -104.8739 75° East 488 562 37,000  Level Denver Center
04:40PM 44.3650 -104.6714 74° East 488 562 37,000  Level Denver Center
04:41PM 44.3986 -104.4981 75° East 486 559 37,000  Level Denver Center
04:42PM 44.4383 -104.3025 74° East 479 551 37,000  Level Denver Center
04:43PM 44.4717 -104.1303 75° East 480 552 37,000  Level Denver Center
04:44PM 44.5111 -103.9292 75° East 481 554 37,000  Level Denver Center
04:45PM 44.5433 -103.7564 75° East 480 552 37,000  Level Denver Center
04:46PM 44.5761 -103.5833 75° East 481 554 37,000  Level Denver Center
04:47PM 44.6147 -103.3756 75° East 484 557 37,000  Level Denver Center
04:48PM 44.6475 -103.1931 76° East 482 555 37,000  Level Denver Center
04:49PM 44.6825 -103.0117 75° East 482 555 37,000  Level Denver Center
04:50PM 44.7142 -102.8272 76° East 484 557 37,000  Level Denver Center
04:51PM 44.7467 -102.6453 76° East 482 555 37,000  Level Denver Center
04:53PM 44.7803 -102.4631 75° East 482 555 37,000  Level Denver Center
04:54PM 44.8106 -102.2800 77° East 481 554 37,000  Level Denver Center
04:55PM 44.8500 -102.0589 76° East 484 557 37,000  Level Denver Center
04:56PM 44.8803 -101.8747 77° East 484 557 37,000  Level Minneapolis Center
04:57PM 44.9164 -101.6547 77° East 483 556 37,000  Level Minneapolis Center
04:58PM 44.9475 -101.4689 77° East 484 557 37,000  Level Minneapolis Center
04:59PM 44.9781 -101.2836 77° East 485 558 37,000  Level Minneapolis Center
05:00PM 45.0083 -101.0975 77° East 486 559 37,000  Level Minneapolis Center
05:01PM 45.0417 -100.9081 76° East 492 566 37,000  Level Minneapolis Center
05:02PM 45.0769 -100.6822 77° East 490 564 37,000  Level Minneapolis Center
05:03PM 45.1075 -100.4925 77° East 491 565 37,000  Level Minneapolis Center
05:04PM 45.1367 -100.3019 78° East 493 567 37,000  Level Minneapolis Center
05:05PM 45.1667 -100.1075 78° East 495 570 37,000  Level Minneapolis Center
05:06PM 45.1986 -99.9092 77° East 500 575 37,000  Level Minneapolis Center
05:07PM 45.2267 -99.7128 78° East 500 575 37,000  Level Minneapolis Center
05:08PM 45.2542 -99.5211 78° East 496 571 37,000  Level Minneapolis Center
05:09PM 45.2825 -99.3306 78° East 495 570 37,000  Level Minneapolis Center
05:10PM 45.3094 -99.1408 79° East 492 566 37,000  Level Minneapolis Center
05:11PM 45.3411 -98.9142 79° East 488 562 37,000  Level Minneapolis Center
05:12PM 45.3461 -98.7250 88° East 483 556 37,000  Level Minneapolis Center
05:13PM 45.3411 -98.5367 92° East 478 550 37,000  Level Minneapolis Center
05:14PM 45.3364 -98.3486 92° East 477 549 37,000  Level Minneapolis Center
05:15PM 45.3294 -98.1619 93° East 474 545 37,000  Level Minneapolis Center
05:16PM 45.3228 -97.9833 93° East 475 547 37,000  Level Minneapolis Center
05:18PM 45.3147 -97.7564 93° East 478 550 37,000  Level Minneapolis Center
05:19PM 45.3078 -97.5678 93° East 479 551 37,000  Level Minneapolis Center
05:20PM 45.2989 -97.3400 93° East 481 554 37,000  Level Minneapolis Center
05:21PM 45.2914 -97.1508 93° East 481 554 37,000  Level Minneapolis Center
05:22PM 45.2831 -96.9619 94° East 480 552 37,000  Level Minneapolis Center
05:23PM 45.2764 -96.8131 94° East 475 547 37,000  Level Minneapolis Center
05:24PM 45.2647 -96.5508 94° East 475 547 37,000  Level Minneapolis Center
05:25PM 45.2528 -96.3258 94° East 476 548 37,000  Level Minneapolis Center
05:26PM 45.2433 -96.1375 94° East 478 550 37,000  Level Minneapolis Center
05:27PM 45.2356 -95.9872 94° East 478 550 37,000 180 Level Minneapolis Center
05:28PM 45.2239 -95.7611 94° East 478 550 37,400 600 Climbing Minneapolis Center
05:29PM 45.2144 -95.5742 94° East 476 548 38,300 720 Climbing Minneapolis Center
05:30PM 45.2031 -95.3872 95° East 475 547 39,000 300 Climbing Minneapolis Center
05:31PM 45.1900 -95.1664 95° East 470 541 39,000  Level Minneapolis Center
05:32PM 45.1794 -94.9836 95° East 467 537 39,000  Level Minneapolis Center
05:33PM 45.1689 -94.8017 95° East 465 535 39,000  Level Minneapolis Center
05:34PM 45.1556 -94.6056 95° East 462 532 39,000  Level Minneapolis Center
05:35PM 45.1439 -94.4233 95° East 464 534 39,000  Level Minneapolis Center
05:41PM 45.0710 -93.4100 95° East 39,000  Level FlightAware
05:42PM 45.0650 -93.3240 96° East 470 541 39,000  Level FlightAware
05:42PM 45.0530 -93.1680 96° East 470 541 39,000  Level FlightAware
05:43PM 45.0420 -93.0340 97° East 472 543 39,000  Level FlightAware
05:44PM 45.0290 -92.8680 96° East 475 547 39,000  Level FlightAware
05:45PM 45.0210 -92.7630 96° East 477 549 39,000  Level FlightAware
05:45PM 45.0080 -92.6080 97° East 480 552 39,000  Level FlightAware
05:46PM 44.9970 -92.4770 97° East 481 554 39,000  Level FlightAware
05:47PM 44.9860 -92.3430 97° East 483 556 39,000  Level FlightAware
05:47PM 44.9750 -92.2170 97° East 484 557 39,000  Level FlightAware
05:48PM 44.9640 -92.0890 97° East 484 557 39,000  Level FlightAware
05:49PM 44.9520 -91.9580 97° East 484 557 39,000  Level FlightAware
05:50PM 44.9400 -91.8220 97° East 484 557 39,000  Level FlightAware
05:50PM 44.9290 -91.6980 97° East 484 557 39,000  Level FlightAware
05:51PM 44.9160 -91.5560 97° East 484 557 39,000  Level FlightAware
05:52PM 44.9020 -91.4020 97° East 484 557 39,000  Level FlightAware
05:53PM 44.8890 -91.2610 97° East 485 558 39,000  Level FlightAware
05:53PM 44.8770 -91.1390 98° East 485 558 39,000  Level FlightAware
05:54PM 44.8600 -90.9620 98° East 485 558 39,000  Level FlightAware
05:55PM 44.8470 -90.8260 98° East 484 557 39,000  Level FlightAware
05:56PM 44.8280 -90.6450 98° East 484 557 39,000  Level FlightAware
05:57PM 44.8140 -90.5070 98° East 484 557 39,000  Level FlightAware
05:57PM 44.7980 -90.3450 98° East 483 556 39,000  Level FlightAware
05:58PM 44.7850 -90.2150 98° East 483 556 39,000  Level FlightAware
05:59PM 44.7700 -90.0810 99° East 483 556 39,000  Level FlightAware
05:59PM 44.7580 -89.9600 98° East 483 556 39,000  Level FlightAware
06:00PM 44.7410 -89.8050 99° East 484 557 39,000  Level FlightAware
06:01PM 44.7290 -89.6990 99° East 485 558 39,000  Level FlightAware
06:02PM 44.7190 -89.5930 98° East 485 558 39,000  Level FlightAware
06:02PM 44.7060 -89.4600 98° East 485 558 39,000  Level FlightAware
06:03PM 44.6850 -89.2950 100° East 488 562 39,000  Level FlightAware
06:04PM 44.6700 -89.1640 99° East 489 563 39,000  Level FlightAware
06:04PM 44.6550 -89.0310 99° East 490 564 39,000  Level FlightAware
06:05PM 44.6380 -88.8890 100° East 491 565 39,000  Level FlightAware
06:06PM 44.6230 -88.7620 99° East 491 565 39,000  Level FlightAware
06:07PM 44.6080 -88.6310 99° East 491 565 39,000  Level FlightAware
06:07PM 44.5920 -88.4990 100° East 491 565 39,000  Level FlightAware
06:08PM 44.5770 -88.3700 99° East 492 566 39,000  Level FlightAware
06:09PM 44.5630 -88.2570 100° East 492 566 39,000  Level FlightAware
06:09PM 44.5260 -88.1060 109° East 489 563 39,000  Level FlightAware
06:10PM 44.4880 -87.9910 115° Southeast 489 563 39,000  Level FlightAware
06:11PM 44.4420 -87.8520 115° Southeast 488 562 39,000  Level FlightAware
06:12PM 44.3970 -87.7180 115° Southeast 488 562 39,000  Level FlightAware
06:12PM 44.3590 -87.6040 115° Southeast 488 562 39,000  Level FlightAware
06:13PM 44.3200 -87.4880 115° Southeast 488 562 39,000  Level FlightAware
06:14PM 44.2760 -87.3590 115° Southeast 486 559 39,000  Level FlightAware
06:14PM 44.2470 -87.2720 115° Southeast 485 558 39,000  Level FlightAware
06:15PM 44.1970 -87.1260 115° Southeast 483 556 39,000  Level FlightAware
06:16PM 44.1570 -87.0080 115° Southeast 483 556 39,000  Level FlightAware
06:17PM 44.1190 -86.8980 116° Southeast 481 554 39,000  Level FlightAware
06:17PM 44.0770 -86.7770 116° Southeast 479 551 39,000  Level FlightAware
06:18PM 44.0380 -86.6640 116° Southeast 478 550 39,000  Level FlightAware
06:19PM 43.9950 -86.5420 116° Southeast 477 549 39,000  Level FlightAware
06:19PM 43.9600 -86.4410 116° Southeast 477 549 39,000  Level FlightAware
06:20PM 43.9180 -86.3220 116° Southeast 478 550 39,000  Level FlightAware
06:21PM 43.8760 -86.2030 116° Southeast 478 550 39,000  Level FlightAware
06:21PM 43.8380 -86.0980 117° Southeast 479 551 39,000  Level FlightAware
06:22PM 43.7970 -85.9800 116° Southeast 480 552 39,000  Level FlightAware
06:23PM 43.7510 -85.8520 116° Southeast 480 552 39,000  Level FlightAware
06:24PM 43.7090 -85.7370 117° Southeast 482 555 39,000  Level FlightAware
06:24PM 43.6670 -85.6200 116° Southeast 482 555 39,000  Level FlightAware
06:25PM 43.6250 -85.5040 117° Southeast 482 555 39,000  Level FlightAware
06:26PM 43.5850 -85.3930 116° Southeast 481 554 39,000  Level FlightAware
06:26PM 43.5450 -85.2830 117° Southeast 479 551 39,000  Level FlightAware
06:27PM 43.4970 -85.1540 117° Southeast 478 550 39,000  Level FlightAware
06:28PM 43.4600 -85.0520 117° Southeast 477 549 39,000  Level FlightAware
06:28PM 43.4140 -84.9270 117° Southeast 476 548 39,000  Level FlightAware
06:29PM 43.3730 -84.8190 118° Southeast 477 549 39,000  Level FlightAware
06:30PM 43.3350 -84.7150 117° Southeast 477 549 39,000  Level FlightAware
06:31PM 43.2890 -84.5940 118° Southeast 477 549 39,000  Level FlightAware
06:31PM 43.2490 -84.4860 117° Southeast 478 550 39,000  Level FlightAware
06:32PM 43.2050 -84.3700 117° Southeast 477 549 39,000  Level FlightAware
06:33PM 43.1630 -84.2600 118° Southeast 477 549 39,000  Level FlightAware
06:33PM 43.1190 -84.1420 117° Southeast 476 548 39,000  Level FlightAware
06:34PM 43.0800 -84.0410 118° Southeast 477 549 39,000  Level FlightAware
06:35PM 43.0310 -83.9140 118° Southeast 477 549 39,000  Level FlightAware
06:35PM 42.9900 -83.8060 117° Southeast 476 548 39,000  Level FlightAware
06:36PM 42.9470 -83.7110 122° Southeast 480 552 39,000  Level FlightAware
06:37PM 42.8920 -83.6120 127° Southeast 481 554 39,000  Level FlightAware
06:38PM 42.8310 -83.5020 127° Southeast 480 552 39,000  Level FlightAware
06:38PM 42.7780 -83.4070 127° Southeast 480 552 39,000  Level FlightAware
06:39PM 42.7160 -83.2970 127° Southeast 480 552 39,000  Level FlightAware
06:40PM 42.6620 -83.2020 128° Southeast 480 552 39,000  Level FlightAware
06:40PM 42.6080 -83.1070 128° Southeast 480 552 39,000  Level FlightAware
06:41PM 42.5490 -83.0030 128° Southeast 477 549 39,000  Level FlightAware
06:42PM 42.4920 -82.9020 127° Southeast 478 550 39,000  Level FlightAware
06:42PM 42.4360 -82.8040 128° Southeast 479 551 39,000  Level FlightAware
06:43PM 42.3870 -82.6980 122° Southeast 479 551 39,000  Level FlightAware
06:44PM 42.3740 -82.5780 98° East 476 548 39,000  Level FlightAware
06:45PM 42.3690 -82.4440 93° East 477 549 39,000  Level FlightAware
06:45PM 42.3650 -82.3390 93° East 476 548 39,000  Level FlightAware
06:46PM 42.3590 -82.1980 93° East 475 547 39,000  Level FlightAware
06:47PM 42.3530 -82.0650 93° East 475 547 39,000  Level FlightAware
06:48PM 42.3470 -81.9180 93° East 475 547 39,000  Level FlightAware
06:48PM 42.3420 -81.8030 93° East 474 545 39,000  Level FlightAware
06:49PM 42.3360 -81.6720 94° East 475 547 39,000  Level FlightAware
06:50PM 42.3290 -81.5280 94° East 474 545 39,000  Level FlightAware
06:50PM 42.3230 -81.4160 94° East 474 545 39,000  Level FlightAware
06:51PM 42.3170 -81.2940 94° East 473 544 39,000  Level FlightAware
06:52PM 42.3110 -81.1560 93° East 473 544 39,000  Level FlightAware
06:52PM 42.3040 -81.0360 94° East 474 545 39,000  Level FlightAware
06:53PM 42.2940 -80.9090 96° East 475 547 39,000  Level FlightAware
06:54PM 42.2800 -80.7940 99° East 475 547 39,000  Level FlightAware
06:55PM 42.2650 -80.6690 99° East 476 548 39,000  Level FlightAware
06:55PM 42.2510 -80.5690 101° East 477 549 39,000  Level FlightAware
06:56PM 42.2320 -80.4230 100° East 478 550 39,000  Level FlightAware
06:57PM 42.2170 -80.3030 100° East 478 550 39,000  Level FlightAware
06:57PM 42.2010 -80.1830 100° East 478 550 39,000  Level FlightAware
06:58PM 42.1890 -80.0920 100° East 478 550 39,000  Level FlightAware
06:59PM 42.1720 -79.9630 100° East 476 548 39,000  Level FlightAware
07:00PM 42.1450 -79.7690 101° East 472 543 39,000  Level FlightAware
07:00PM 42.1280 -79.6480 101° East 470 541 39,000  Level FlightAware
07:01PM 42.1120 -79.5280 100° East 468 539 39,000  Level FlightAware
07:02PM 42.0950 -79.4100 101° East 469 540 39,000  Level FlightAware
07:02PM 42.0780 -79.2880 101° East 467 537 39,000  Level FlightAware
07:03PM 42.0600 -79.1640 101° East 464 534 39,000  Level FlightAware
07:04PM 42.0440 -79.0500 101° East 462 532 39,000  Level FlightAware
07:05PM 42.0260 -78.9260 101° East 460 529 39,000  Level FlightAware
07:05PM 42.0100 -78.8120 101° East 458 527 39,000  Level FlightAware
07:06PM 41.9930 -78.6970 101° East 458 527 39,000  Level FlightAware
07:07PM 41.9750 -78.5800 102° East 458 527 39,000  Level FlightAware
07:07PM 41.9570 -78.4580 101° East 459 528 39,000  Level FlightAware
07:08PM 41.9410 -78.3470 101° East 459 528 39,000  Level FlightAware
07:09PM 41.9210 -78.2160 102° East 459 528 39,000  Level FlightAware
07:10PM 41.9040 -78.1040 101° East 456 525 39,000  Level FlightAware
07:10PM 41.8860 -77.9880 102° East 455 524 39,000  Level FlightAware
07:11PM 41.8690 -77.8800 102° East 456 525 39,000  Level FlightAware
07:12PM 41.8410 -77.7600 107° East 458 527 39,000  Level FlightAware
07:12PM 41.8120 -77.6490 109° East 458 527 39,000  Level FlightAware
07:13PM 41.7820 -77.5360 110° East 459 528 39,000  Level FlightAware
07:14PM 41.7530 -77.4280 110° East 460 529 39,000  Level FlightAware
07:14PM 41.7240 -77.3190 110° East 460 529 39,000  Level FlightAware
07:15PM 41.7040 -77.2440 110° East 460 529 39,000  Level FlightAware
07:16PM 41.6720 -77.1270 110° East 462 532 39,000  Level FlightAware
07:16PM 41.6490 -77.0414 110° East 462 532 39,000  Level FlightAware ADS-B
07:17PM 41.6269 -76.9595 110° East 464 534 39,000  Level FlightAware ADS-B
07:17PM 41.6046 -76.8780 110° East 464 534 39,000  Level FlightAware ADS-B
07:18PM 41.5812 -76.7923 110° East 463 533 39,000  Level FlightAware ADS-B
07:18PM 41.5576 -76.7059 110° East 463 533 39,000 -120 Level FlightAware ADS-B
07:19PM 41.5349 -76.6235 110° East 463 533 38,900 -720 Descending FlightAware ADS-B
07:19PM 41.5112 -76.5375 110° East 463 533 38,300 -1,020 Descending FlightAware ADS-B
07:20PM 41.4857 -76.4457 110° East 462 532 37,800 -1,140 Descending FlightAware ADS-B
07:20PM 41.4626 -76.3626 110° East 461 531 37,100 -1,380 Descending FlightAware ADS-B
07:21PM 41.4400 -76.2814 110° East 455 524 36,400 -1,920 Descending FlightAware ADS-B
07:21PM 41.4176 -76.2012 110° East 462 532 35,200 -2,280 Descending FlightAware ADS-B
07:22PM 41.3942 -76.1178 110° East 462 532 34,100 -2,160 Descending FlightAware ADS-B
07:22PM 41.3690 -76.0281 110° East 465 535 32,900 -2,280 Descending FlightAware ADS-B
07:23PM 41.3456 -75.9456 111° Southeast 463 533 31,700 -2,220 Descending FlightAware ADS-B
07:23PM 41.3217 -75.8609 111° Southeast 456 525 30,600 -2,160 Descending FlightAware ADS-B
07:24PM 41.2958 -75.7698 111° Southeast 451 519 29,300 -2,100 Descending FlightAware ADS-B
07:25PM 41.2728 -75.6915 111° Southeast 445 512 28,300 -2,520 Descending FlightAware ADS-B
07:25PM 41.2476 -75.6131 113° Southeast 451 519 26,700 -2,700 Descending FlightAware ADS-B
07:26PM 41.2209 -75.5331 114° Southeast 447 514 25,500 -2,100 Descending FlightAware ADS-B
07:26PM 41.1952 -75.4567 114° Southeast 438 504 24,500 -2,040 Descending FlightAware ADS-B
07:27PM 41.1672 -75.3735 114° Southeast 435 501 23,300 -1,440 Descending FlightAware ADS-B
07:27PM 41.1419 -75.2984 114° Southeast 432 497 23,000 -300 Descending FlightAware ADS-B
07:28PM 41.1173 -75.2256 114° Southeast 424 488 23,000  Level FlightAware ADS-B
07:28PM 41.0921 -75.1512 114° Southeast 426 490 23,000  Level FlightAware ADS-B
07:29PM 41.0675 -75.0788 114° Southeast 430 495 23,000  Level FlightAware ADS-B
07:29PM 41.0420 -75.0040 114° Southeast 438 504 23,000  Level FlightAware ADS-B
07:30PM 41.0164 -74.9287 114° Southeast 440 506 23,000  Level FlightAware ADS-B
07:30PM 41.0046 -74.8905 112° Southeast 442 509 23,000  Level FlightAware ADS-B
07:30PM 41.0002 -74.8730 108° East 443 510 23,000  Level FlightAware ADS-B
07:30PM 40.9960 -74.8535 106° East 444 511 23,000  Level FlightAware ADS-B
07:30PM 40.9917 -74.8281 103° East 445 512 23,000  Level FlightAware ADS-B
07:31PM 40.9874 -74.7921 99° East 447 514 23,000  Level FlightAware ADS-B
07:31PM 40.9823 -74.7458 98° East 446 513 23,000  Level FlightAware ADS-B
07:31PM 40.9760 -74.6862 98° East 446 513 23,000  Level FlightAware ADS-B
07:31PM 40.9729 -74.6574 98° East 445 512 23,000  Level FlightAware ADS-B
07:32PM 40.9652 -74.5857 98° East 443 510 23,000  Level FlightAware ADS-B
07:32PM 40.9639 -74.5737 98° East 443 510 23,000 -720 Level FlightAware ADS-B
07:33PM 40.9550 -74.4920 98° East 446 513 22,600 -1,440 Descending FlightAware ADS-B
07:33PM 40.9462 -74.4118 98° East 431 496 21,600 -2,340 Descending FlightAware ADS-B
07:34PM 40.9370 -74.3293 98° East 425 489 20,200 -2,340 Descending FlightAware ADS-B
07:34PM 40.9282 -74.2526 99° East 422 486 19,200 -1,560 Descending FlightAware ADS-B
07:34PM 40.9227 -74.2116 100° East 415 478 19,000 -540 Descending FlightAware ADS-B
07:34PM 40.9173 -74.1917 110° East 405 466 19,000  Level FlightAware ADS-B
07:35PM 40.9125 -74.1790 117° Southeast 397 457 19,000  Level FlightAware ADS-B
07:35PM 40.9017 -74.1583 125° Southeast 385 443 19,000 -480 Level FlightAware ADS-B
07:35PM 40.8990 -74.1540 130° Southeast 383 441 18,900 -1,500 Descending FlightAware ADS-B
07:35PM 40.8919 -74.1444 134° Southeast 378 435 18,800 -900 Descending FlightAware ADS-B
07:35PM 40.8899 -74.1422 140° Southeast 377 434 18,800 -1,380 Level FlightAware ADS-B
07:35PM 40.8789 -74.1312 143° Southeast 370 426 18,600 -1,380 Descending FlightAware ADS-B
07:35PM 40.8775 -74.1300 147° Southeast 369 425 18,600 -1,380 Level FlightAware ADS-B
07:35PM 40.8656 -74.1216 152° Southeast 361 415 18,400 -1,140 Descending FlightAware ADS-B
07:35PM 40.8546 -74.1161 159° South 353 406 18,300 -1,080 Descending FlightAware ADS-B
07:35PM 40.8397 -74.1108 165° South 344 396 18,100 -840 Descending FlightAware ADS-B
07:36PM 40.8078 -74.0992 165° South 332 382 17,900 -780 Descending FlightAware ADS-B
07:36PM 40.7903 -74.0924 164° South 327 376 17,700 -1,320 Descending FlightAware ADS-B
07:36PM 40.7615 -74.0809 163° South 324 373 17,200 -1,380 Descending FlightAware ADS-B
07:37PM 40.7467 -74.0746 162° South 322 371 17,000 -1,200 Descending FlightAware ADS-B
07:37PM 40.7195 -74.0623 161° South 313 360 16,600 -1,440 Descending FlightAware ADS-B
07:37PM 40.7004 -74.0543 162° South 305 351 16,200 -1,980 Descending FlightAware ADS-B
07:37PM 40.6775 -74.0453 163° South 304 350 15,600 -2,280 Descending FlightAware ADS-B
07:38PM 40.6347 -74.0290 164° South 308 354 14,400 -1,980 Descending FlightAware ADS-B
07:39PM 40.5840 -74.0079 162° South 312 359 13,400 -1,500 Descending FlightAware ADS-B
07:39PM 40.5630 -73.9858 141° Southeast 314 361 13,000 -600 Descending FlightAware ADS-B
07:39PM 40.5272 -73.9366 134° Southeast 314 361 12,900 -840 Descending FlightAware ADS-B
07:40PM 40.4966 -73.8945 134° Southeast 311 358 12,100 -1,920 Descending FlightAware ADS-B
07:40PM 40.4669 -73.8542 134° Southeast 305 351 11,000 -2,220 Descending FlightAware ADS-B
07:41PM 40.4349 -73.8108 134° Southeast 301 346 9,800 -2,280 Descending FlightAware ADS-B
07:41PM 40.4201 -73.7908 134° Southeast 299 344 9,200 -2,400 Descending FlightAware ADS-B
07:42PM 40.4028 -73.7678 135° Southeast 296 341 8,500 -2,220 Descending FlightAware ADS-B
07:42PM 40.3883 -73.7485 135° Southeast 294 338 8,000 -2,160 Descending FlightAware ADS-B
07:42PM 40.3732 -73.7282 134° Southeast 292 336 7,400 -2,280 Descending FlightAware ADS-B
07:42PM 40.3584 -73.7084 134° Southeast 291 335 6,800 -2,340 Descending FlightAware ADS-B
07:43PM 40.3442 -73.6890 134° Southeast 291 335 6,200 -2,460 Descending FlightAware ADS-B
07:43PM 40.3358 -73.6716 122° Southeast 293 337 5,700 -1,080 Descending FlightAware ADS-B
07:43PM 40.3270 -73.6200 103° East 293 337 5,400 -1,800 Descending FlightAware
07:44PM 40.3640 -73.5900 32° Northeast 269 310 4,000 -3,120 Descending FlightAware
07:44PM 40.3690 -73.5850 37° Northeast 266 306 3,900 -600 Descending FlightAware
07:44PM 40.4020 -73.5580 32° Northeast 236 272 3,600 -420 Descending FlightAware
07:45PM 40.4250 -73.5390 32° Northeast 207 238 3,500 -720 Descending FlightAware
07:45PM 40.4470 -73.5200 33° Northeast 202 232 3,000 -600 Descending FlightAware
07:46PM 40.4730 -73.5000 30° Northeast 197 227 2,900 -180 Descending FlightAware
07:46PM 40.4770 -73.4990 11° North 190 219 2,900  Level FlightAware
07:46PM 40.4950 -73.5070 341° North 166 191 2,900  Level FlightAware
07:47PM 40.5110 -73.5170 335° Northwest 161 185 2,900  Level FlightAware
07:47PM 40.5210 -73.5230 335° Northwest 158 182 2,900  Level FlightAware
07:47PM 40.5400 -73.5380 329° Northwest 153 176 2,900  Level FlightAware
07:48PM 40.5460 -73.5470 311° West 150 173 2,900  Level FlightAware
07:48PM 40.5570 -73.5680 305° West 151 174 2,900  Level FlightAware
07:49PM 40.5650 -73.5860 300° West 151 174 2,900 -300 Level FlightAware
07:49PM 40.5720 -73.6020 300° West 156 180 2,700 -780 Descending FlightAware
07:49PM 40.5820 -73.6240 301° West 149 171 2,300 -900 Descending FlightAware
07:50PM 40.5920 -73.6460 301° West 148 170 1,900 -780 Descending FlightAware
07:50PM 40.6020 -73.6660 303° West 128 147 1,600 -660 Descending FlightAware
07:51PM 40.6100 -73.6840 300° West 123 142 1,300 -600 Descending FlightAware
07:51PM 40.6140 -73.6930 300° West 123 142 1,200 -660 Descending FlightAware
07:51PM 40.6210 -73.7100 298° West 120 138 900 -720 Descending FlightAware
07:52PM 40.6260 -73.7200 303° West 123 142 700 -720 Descending FlightAware
07:52PM 40.6340 -73.7380 300° West 126 145 400 -600 Descending FlightAware
07:52PM 40.6380 -73.7470 300° West 128 147 300 -540 Descending FlightAware
07:53PM 40.6460 -73.7650 300° West 135 155 -660 Descending FlightAware
07:53PM 40.6540 -73.7830 300° West 11 13  Level FlightAware